Decoded Metar for SAAR (ROSARIO in ARGENTINA) (IATA:ROS) | Meteo·Mobile Aviation Weather
aviador You're here:

SAAR Decoded Metar

ROSARIO in ARGENTINA
Report Time2018-10-23 09:00:00
UTC Time2018-10-23 09:27:47
Flight Rules vfr VFR
Wind160° at 06 kt
W.Decomp.*RWY 20: 4.9 kt HW 3.4 kt LCW
W.Rank160° ranks 5
Current wind is below 160° avg. (7.2)
Visibility9999 m
Phenomena:N/A
Clouds:N/A
Expected CloudBase > 1,200 ft AGL from Temp-Dew spread
CeilingNone
Temp12°C (ISA -3)
Dew Point09°C (82% RH)
AAT9.6°C
QNH1019 hPa
Density Alt-305 ft
Elevation82 ft
Report Wrong Elevation
Raw Report
METAR SAAR 230900Z 16006KT CAVOK 12/09 Q1019=

Extra information for SAAR:More info

Metar Taf Metar & Taf Last 4 Metars F.Rules Stats Wind Profile Meteogram Temp Stats Airport Information Weather charts Add Link Nearby VenuesMetar ALERT Operation Metar Decoded Social comments